sensor_id;sensor_type;location;lat;lon;timestamp;temperature;humidity
39325;DHT22;25037;49.488;9.900;2022-10-31T00:00:07;11.40;77.50
39325;DHT22;25037;49.488;9.900;2022-10-31T00:02:33;11.40;77.60
39325;DHT22;25037;49.488;9.900;2022-10-31T00:04:59;11.40;77.60
39325;DHT22;25037;49.488;9.900;2022-10-31T00:07:24;11.40;77.60
39325;DHT22;25037;49.488;9.900;2022-10-31T00:09:50;11.30;77.60
39325;DHT22;25037;49.488;9.900;2022-10-31T00:12:15;11.30;77.60
39325;DHT22;25037;49.488;9.900;2022-10-31T00:14:41;11.30;77.60
39325;DHT22;25037;49.488;9.900;2022-10-31T00:17:06;11.30;77.60
39325;DHT22;25037;49.488;9.900;2022-10-31T00:19:32;11.30;77.60
39325;DHT22;25037;49.488;9.900;2022-10-31T00:21:57;11.30;77.60
39325;DHT22;25037;49.488;9.900;2022-10-31T00:24:23;11.30;77.60
39325;DHT22;25037;49.488;9.900;2022-10-31T00:26:48;11.30;77.70
39325;DHT22;25037;49.488;9.900;2022-10-31T00:29:14;11.30;77.60
39325;DHT22;25037;49.488;9.900;2022-10-31T00:31:39;11.20;77.60
39325;DHT22;25037;49.488;9.900;2022-10-31T00:34:05;11.20;77.60
39325;DHT22;25037;49.488;9.900;2022-10-31T00:36:30;11.20;77.50
39325;DHT22;25037;49.488;9.900;2022-10-31T00:38:58;11.20;77.50
39325;DHT22;25037;49.488;9.900;2022-10-31T00:41:24;11.20;77.50
39325;DHT22;25037;49.488;9.900;2022-10-31T00:43:49;11.20;77.50
39325;DHT22;25037;49.488;9.900;2022-10-31T00:46:15;11.10;77.40
39325;DHT22;25037;49.488;9.900;2022-10-31T00:48:41;11.10;77.50
39325;DHT22;25037;49.488;9.900;2022-10-31T00:51:07;11.10;77.50
39325;DHT22;25037;49.488;9.900;2022-10-31T00:53:33;11.10;77.50
39325;DHT22;25037;49.488;9.900;2022-10-31T00:55:59;11.00;77.50
39325;DHT22;25037;49.488;9.900;2022-10-31T00:58:24;11.00;77.50
39325;DHT22;25037;49.488;9.900;2022-10-31T01:00:50;10.90;77.50
39325;DHT22;25037;49.488;9.900;2022-10-31T01:03:27;10.90;77.50
39325;DHT22;25037;49.488;9.900;2022-10-31T01:08:26;10.90;77.50
39325;DHT22;25037;49.488;9.900;2022-10-31T01:11:15;10.80;77.50
39325;DHT22;25037;49.488;9.900;2022-10-31T01:13:42;10.80;77.50
39325;DHT22;25037;49.488;9.900;2022-10-31T01:16:11;10.80;77.60
39325;DHT22;25037;49.488;9.900;2022-10-31T01:18:37;10.80;77.70
39325;DHT22;25037;49.488;9.900;2022-10-31T01:23:35;10.80;77.80
39325;DHT22;25037;49.488;9.900;2022-10-31T01:26:02;10.80;77.80
39325;DHT22;25037;49.488;9.900;2022-10-31T01:28:27;10.80;77.90
39325;DHT22;25037;49.488;9.900;2022-10-31T01:30:53;10.80;77.90
39325;DHT22;25037;49.488;9.900;2022-10-31T01:33:18;10.80;77.90
39325;DHT22;25037;49.488;9.900;2022-10-31T01:35:44;10.70;77.90
39325;DHT22;25037;49.488;9.900;2022-10-31T01:38:09;10.70;77.90
39325;DHT22;25037;49.488;9.900;2022-10-31T01:40:35;10.80;77.90
39325;DHT22;25037;49.488;9.900;2022-10-31T01:43:00;10.80;77.90
39325;DHT22;25037;49.488;9.900;2022-10-31T01:45:26;10.80;77.80
39325;DHT22;25037;49.488;9.900;2022-10-31T01:47:52;10.80;77.80
39325;DHT22;25037;49.488;9.900;2022-10-31T01:50:26;10.80;77.80
39325;DHT22;25037;49.488;9.900;2022-10-31T01:52:53;10.70;77.80
39325;DHT22;25037;49.488;9.900;2022-10-31T01:55:28;10.70;77.80
39325;DHT22;25037;49.488;9.900;2022-10-31T01:57:58;10.70;77.80
39325;DHT22;25037;49.488;9.900;2022-10-31T02:00:24;10.70;77.80
39325;DHT22;25037;49.488;9.900;2022-10-31T02:02:51;10.70;77.70
39325;DHT22;25037;49.488;9.900;2022-10-31T02:05:22;10.70;77.70
39325;DHT22;25037;49.488;9.900;2022-10-31T02:07:55;10.70;77.80
39325;DHT22;25037;49.488;9.900;2022-10-31T02:10:22;10.70;77.80
39325;DHT22;25037;49.488;9.900;2022-10-31T02:12:51;10.60;77.70
39325;DHT22;25037;49.488;9.900;2022-10-31T02:15:18;10.70;77.80
39325;DHT22;25037;49.488;9.900;2022-10-31T02:17:44;10.60;77.70
39325;DHT22;25037;49.488;9.900;2022-10-31T02:36:15;10.60;77.90
39325;DHT22;25037;49.488;9.900;2022-10-31T02:44:27;10.60;77.90
39325;DHT22;25037;49.488;9.900;2022-10-31T02:47:02;10.60;77.90
39325;DHT22;25037;49.488;9.900;2022-10-31T02:49:36;10.60;77.80
39325;DHT22;25037;49.488;9.900;2022-10-31T02:52:20;10.50;77.90
39325;DHT22;25037;49.488;9.900;2022-10-31T02:54:47;10.50;77.90
39325;DHT22;25037;49.488;9.900;2022-10-31T02:57:13;10.50;78.00
39325;DHT22;25037;49.488;9.900;2022-10-31T02:59:46;10.50;78.00
39325;DHT22;25037;49.488;9.900;2022-10-31T03:02:35;10.50;78.00
39325;DHT22;25037;49.488;9.900;2022-10-31T03:11:05;10.40;77.90
39325;DHT22;25037;49.488;9.900;2022-10-31T03:16:40;10.40;77.70
39325;DHT22;25037;49.488;9.900;2022-10-31T03:19:12;10.40;77.80
39325;DHT22;25037;49.488;9.900;2022-10-31T03:21:58;10.40;77.80
39325;DHT22;25037;49.488;9.900;2022-10-31T03:24:29;10.40;77.80
39325;DHT22;25037;49.488;9.900;2022-10-31T03:26:57;10.40;77.80
39325;DHT22;25037;49.488;9.900;2022-10-31T03:29:28;10.40;77.80
39325;DHT22;25037;49.488;9.900;2022-10-31T03:31:58;10.30;77.80
39325;DHT22;25037;49.488;9.900;2022-10-31T03:34:25;10.30;77.80
39325;DHT22;25037;49.488;9.900;2022-10-31T03:36:55;10.30;77.90
39325;DHT22;25037;49.488;9.900;2022-10-31T03:39:22;10.30;77.90
39325;DHT22;25037;49.488;9.900;2022-10-31T03:41:59;10.30;77.80
39325;DHT22;25037;49.488;9.900;2022-10-31T03:44:27;10.20;77.90
39325;DHT22;25037;49.488;9.900;2022-10-31T03:46:54;10.20;77.90
39325;DHT22;25037;49.488;9.900;2022-10-31T03:49:20;10.20;77.90
39325;DHT22;25037;49.488;9.900;2022-10-31T03:52:02;10.20;77.90
39325;DHT22;25037;49.488;9.900;2022-10-31T03:55:16;10.20;77.80
39325;DHT22;25037;49.488;9.900;2022-10-31T03:57:43;10.20;77.80
39325;DHT22;25037;49.488;9.900;2022-10-31T04:00:14;10.20;77.80
39325;DHT22;25037;49.488;9.900;2022-10-31T04:02:47;10.20;77.80
39325;DHT22;25037;49.488;9.900;2022-10-31T04:05:15;10.20;77.80
39325;DHT22;25037;49.488;9.900;2022-10-31T04:07:44;10.20;77.70
39325;DHT22;25037;49.488;9.900;2022-10-31T04:10:13;10.20;77.60
39325;DHT22;25037;49.488;9.900;2022-10-31T04:12:39;10.20;77.70
39325;DHT22;25037;49.488;9.900;2022-10-31T04:15:08;10.20;77.70
39325;DHT22;25037;49.488;9.900;2022-10-31T04:17:37;10.20;77.70
39325;DHT22;25037;49.488;9.900;2022-10-31T04:20:04;10.10;77.60
39325;DHT22;25037;49.488;9.900;2022-10-31T04:22:30;10.10;77.60
39325;DHT22;25037;49.488;9.900;2022-10-31T04:24:56;10.10;77.60
39325;DHT22;25037;49.488;9.900;2022-10-31T04:27:21;10.10;77.60
39325;DHT22;25037;49.488;9.900;2022-10-31T04:29:47;10.10;77.60
39325;DHT22;25037;49.488;9.900;2022-10-31T04:32:12;10.10;77.60
39325;DHT22;25037;49.488;9.900;2022-10-31T04:34:38;10.10;77.50
39325;DHT22;25037;49.488;9.900;2022-10-31T04:37:03;10.10;77.50
39325;DHT22;25037;49.488;9.900;2022-10-31T04:39:29;10.00;77.50
39325;DHT22;25037;49.488;9.900;2022-10-31T04:41:54;10.10;77.50
39325;DHT22;25037;49.488;9.900;2022-10-31T04:44:20;10.00;77.40
39325;DHT22;25037;49.488;9.900;2022-10-31T04:46:45;10.00;77.40
39325;DHT22;25037;49.488;9.900;2022-10-31T04:49:11;10.00;77.40
39325;DHT22;25037;49.488;9.900;2022-10-31T04:51:37;10.00;77.40
39325;DHT22;25037;49.488;9.900;2022-10-31T04:54:02;9.90;77.40
39325;DHT22;25037;49.488;9.900;2022-10-31T04:56:28;9.90;77.40
39325;DHT22;25037;49.488;9.900;2022-10-31T04:58:53;9.90;77.40
39325;DHT22;25037;49.488;9.900;2022-10-31T05:01:19;9.90;77.50
39325;DHT22;25037;49.488;9.900;2022-10-31T05:03:44;9.90;77.50
39325;DHT22;25037;49.488;9.900;2022-10-31T05:06:10;9.80;77.50
39325;DHT22;25037;49.488;9.900;2022-10-31T05:08:35;9.90;77.60
39325;DHT22;25037;49.488;9.900;2022-10-31T05:11:02;9.90;77.60
39325;DHT22;25037;49.488;9.900;2022-10-31T05:13:28;9.90;77.70
39325;DHT22;25037;49.488;9.900;2022-10-31T05:15:53;9.90;77.70
39325;DHT22;25037;49.488;9.900;2022-10-31T05:18:19;9.90;77.70
39325;DHT22;25037;49.488;9.900;2022-10-31T05:20:45;9.90;77.70
39325;DHT22;25037;49.488;9.900;2022-10-31T05:23:10;9.90;77.70
39325;DHT22;25037;49.488;9.900;2022-10-31T05:25:36;9.90;77.80
39325;DHT22;25037;49.488;9.900;2022-10-31T05:28:01;9.90;77.80
39325;DHT22;25037;49.488;9.900;2022-10-31T05:30:30;9.90;77.80
39325;DHT22;25037;49.488;9.900;2022-10-31T05:32:56;9.90;77.90
39325;DHT22;25037;49.488;9.900;2022-10-31T05:35:24;9.90;77.90
39325;DHT22;25037;49.488;9.900;2022-10-31T05:37:50;9.90;77.90
39325;DHT22;25037;49.488;9.900;2022-10-31T05:40:18;9.90;77.90
39325;DHT22;25037;49.488;9.900;2022-10-31T05:42:45;9.90;78.00
39325;DHT22;25037;49.488;9.900;2022-10-31T05:45:14;9.90;78.00
39325;DHT22;25037;49.488;9.900;2022-10-31T05:47:39;9.90;78.00
39325;DHT22;25037;49.488;9.900;2022-10-31T05:50:06;9.90;78.10
39325;DHT22;25037;49.488;9.900;2022-10-31T05:52:32;9.90;78.10
39325;DHT22;25037;49.488;9.900;2022-10-31T05:54:57;9.90;78.10
39325;DHT22;25037;49.488;9.900;2022-10-31T05:57:23;9.90;78.10
39325;DHT22;25037;49.488;9.900;2022-10-31T05:59:48;9.90;78.20
39325;DHT22;25037;49.488;9.900;2022-10-31T06:02:14;9.90;78.20
39325;DHT22;25037;49.488;9.900;2022-10-31T06:04:39;9.90;78.30
39325;DHT22;25037;49.488;9.900;2022-10-31T06:07:05;9.90;78.40
39325;DHT22;25037;49.488;9.900;2022-10-31T06:09:30;9.90;78.30
39325;DHT22;25037;49.488;9.900;2022-10-31T06:11:56;10.00;78.30
39325;DHT22;25037;49.488;9.900;2022-10-31T06:14:21;10.00;78.40
39325;DHT22;25037;49.488;9.900;2022-10-31T06:16:47;10.00;78.40
39325;DHT22;25037;49.488;9.900;2022-10-31T06:19:12;10.00;78.40
39325;DHT22;25037;49.488;9.900;2022-10-31T06:21:38;10.10;78.50
39325;DHT22;25037;49.488;9.900;2022-10-31T06:24:04;10.10;78.50
39325;DHT22;25037;49.488;9.900;2022-10-31T06:26:29;10.10;78.40
39325;DHT22;25037;49.488;9.900;2022-10-31T06:28:55;10.10;78.50
39325;DHT22;25037;49.488;9.900;2022-10-31T06:31:20;10.10;78.50
39325;DHT22;25037;49.488;9.900;2022-10-31T06:33:46;10.10;78.60
39325;DHT22;25037;49.488;9.900;2022-10-31T06:36:11;10.10;78.60
39325;DHT22;25037;49.488;9.900;2022-10-31T06:38:37;10.10;78.50
39325;DHT22;25037;49.488;9.900;2022-10-31T06:41:06;10.20;78.60
39325;DHT22;25037;49.488;9.900;2022-10-31T06:43:32;10.20;78.60
39325;DHT22;25037;49.488;9.900;2022-10-31T06:46:01;10.30;78.60
39325;DHT22;25037;49.488;9.900;2022-10-31T06:48:27;10.30;78.60
39325;DHT22;25037;49.488;9.900;2022-10-31T06:50:52;10.40;78.50
39325;DHT22;25037;49.488;9.900;2022-10-31T06:53:18;10.50;78.40
39325;DHT22;25037;49.488;9.900;2022-10-31T06:55:43;10.60;78.30
39325;DHT22;25037;49.488;9.900;2022-10-31T06:58:10;10.70;78.20
39325;DHT22;25037;49.488;9.900;2022-10-31T07:00:36;10.80;78.00
39325;DHT22;25037;49.488;9.900;2022-10-31T07:03:07;10.80;78.00
39325;DHT22;25037;49.488;9.900;2022-10-31T07:05:34;10.80;77.90
39325;DHT22;25037;49.488;9.900;2022-10-31T07:08:02;10.90;77.80
39325;DHT22;25037;49.488;9.900;2022-10-31T07:10:29;11.00;77.70
39325;DHT22;25037;49.488;9.900;2022-10-31T07:12:56;11.10;77.60
39325;DHT22;25037;49.488;9.900;2022-10-31T07:15:23;11.10;77.50
39325;DHT22;25037;49.488;9.900;2022-10-31T07:17:49;11.20;77.30
39325;DHT22;25037;49.488;9.900;2022-10-31T07:20:15;11.20;77.30
39325;DHT22;25037;49.488;9.900;2022-10-31T07:22:41;11.30;77.20
39325;DHT22;25037;49.488;9.900;2022-10-31T07:25:07;11.50;77.10
39325;DHT22;25037;49.488;9.900;2022-10-31T07:30:03;11.70;76.70
39325;DHT22;25037;49.488;9.900;2022-10-31T07:32:40;11.80;76.60
39325;DHT22;25037;49.488;9.900;2022-10-31T07:35:09;12.00;76.40
39325;DHT22;25037;49.488;9.900;2022-10-31T07:37:35;12.20;76.30
39325;DHT22;25037;49.488;9.900;2022-10-31T07:40:05;12.30;76.10
39325;DHT22;25037;49.488;9.900;2022-10-31T07:42:57;12.50;75.80
39325;DHT22;25037;49.488;9.900;2022-10-31T07:45:23;12.70;75.20
39325;DHT22;25037;49.488;9.900;2022-10-31T07:47:52;12.80;75.10
39325;DHT22;25037;49.488;9.900;2022-10-31T07:50:23;12.90;74.90
39325;DHT22;25037;49.488;9.900;2022-10-31T07:53:02;13.00;74.80
39325;DHT22;25037;49.488;9.900;2022-10-31T07:55:28;13.20;74.50
39325;DHT22;25037;49.488;9.900;2022-10-31T08:00:27;13.50;74.20
39325;DHT22;25037;49.488;9.900;2022-10-31T08:03:02;13.60;74.10
39325;DHT22;25037;49.488;9.900;2022-10-31T08:05:29;13.70;73.70
39325;DHT22;25037;49.488;9.900;2022-10-31T08:07:55;13.80;73.60
39325;DHT22;25037;49.488;9.900;2022-10-31T08:10:21;13.80;73.60
39325;DHT22;25037;49.488;9.900;2022-10-31T08:12:47;13.90;73.50
39325;DHT22;25037;49.488;9.900;2022-10-31T08:15:13;14.00;73.40
39325;DHT22;25037;49.488;9.900;2022-10-31T08:17:38;14.20;73.30
39325;DHT22;25037;49.488;9.900;2022-10-31T08:20:05;14.20;73.20
39325;DHT22;25037;49.488;9.900;2022-10-31T08:22:31;14.30;73.10
39325;DHT22;25037;49.488;9.900;2022-10-31T08:24:56;14.40;72.90
39325;DHT22;25037;49.488;9.900;2022-10-31T08:27:22;14.50;72.80
39325;DHT22;25037;49.488;9.900;2022-10-31T08:29:48;14.60;72.70
39325;DHT22;25037;49.488;9.900;2022-10-31T08:32:13;14.70;72.60
39325;DHT22;25037;49.488;9.900;2022-10-31T08:34:39;14.70;72.50
39325;DHT22;25037;49.488;9.900;2022-10-31T08:37:04;14.80;72.40
39325;DHT22;25037;49.488;9.900;2022-10-31T08:39:30;14.90;72.40
39325;DHT22;25037;49.488;9.900;2022-10-31T08:41:55;14.90;72.30
39325;DHT22;25037;49.488;9.900;2022-10-31T08:44:21;15.00;72.20
39325;DHT22;25037;49.488;9.900;2022-10-31T08:46:46;15.10;72.20
39325;DHT22;25037;49.488;9.900;2022-10-31T08:49:12;15.30;72.10
39325;DHT22;25037;49.488;9.900;2022-10-31T08:51:37;15.40;71.90
39325;DHT22;25037;49.488;9.900;2022-10-31T08:54:03;15.50;71.70
39325;DHT22;25037;49.488;9.900;2022-10-31T08:56:29;15.60;71.60
39325;DHT22;25037;49.488;9.900;2022-10-31T08:58:55;15.80;71.40
39325;DHT22;25037;49.488;9.900;2022-10-31T09:01:20;15.90;71.20
39325;DHT22;25037;49.488;9.900;2022-10-31T09:03:46;16.00;71.00
39325;DHT22;25037;49.488;9.900;2022-10-31T09:06:11;16.20;70.80
39325;DHT22;25037;49.488;9.900;2022-10-31T09:08:37;16.30;70.60
39325;DHT22;25037;49.488;9.900;2022-10-31T09:11:03;16.40;70.60
39325;DHT22;25037;49.488;9.900;2022-10-31T09:13:29;16.50;70.40
39325;DHT22;25037;49.488;9.900;2022-10-31T09:15:56;16.60;70.20
39325;DHT22;25037;49.488;9.900;2022-10-31T09:18:24;16.70;69.90
39325;DHT22;25037;49.488;9.900;2022-10-31T09:20:50;16.70;70.00
39325;DHT22;25037;49.488;9.900;2022-10-31T09:23:21;16.90;69.90
39325;DHT22;25037;49.488;9.900;2022-10-31T09:25:49;17.00;69.60
39325;DHT22;25037;49.488;9.900;2022-10-31T09:28:16;17.10;69.70
39325;DHT22;25037;49.488;9.900;2022-10-31T09:30:42;17.20;69.60
39325;DHT22;25037;49.488;9.900;2022-10-31T09:33:11;17.30;69.60
39325;DHT22;25037;49.488;9.900;2022-10-31T09:35:38;17.40;69.40
39325;DHT22;25037;49.488;9.900;2022-10-31T09:38:12;17.40;69.30
39325;DHT22;25037;49.488;9.900;2022-10-31T09:46:07;17.80;69.10
39325;DHT22;25037;49.488;9.900;2022-10-31T09:51:25;17.80;69.00
39325;DHT22;25037;49.488;9.900;2022-10-31T09:56:27;17.90;69.00
39325;DHT22;25037;49.488;9.900;2022-10-31T09:58:55;18.00;69.00
39325;DHT22;25037;49.488;9.900;2022-10-31T10:01:32;18.00;68.90
39325;DHT22;25037;49.488;9.900;2022-10-31T10:04:28;18.20;68.70
39325;DHT22;25037;49.488;9.900;2022-10-31T10:06:55;18.30;68.60
39325;DHT22;25037;49.488;9.900;2022-10-31T10:09:25;18.30;68.60
39325;DHT22;25037;49.488;9.900;2022-10-31T10:12:04;18.40;68.50
39325;DHT22;25037;49.488;9.900;2022-10-31T10:14:34;18.50;68.40
39325;DHT22;25037;49.488;9.900;2022-10-31T10:22:46;18.70;68.10
39325;DHT22;25037;49.488;9.900;2022-10-31T10:30:44;18.70;68.10
39325;DHT22;25037;49.488;9.900;2022-10-31T10:33:14;18.70;67.90
39325;DHT22;25037;49.488;9.900;2022-10-31T10:38:23;18.70;68.20
39325;DHT22;25037;49.488;9.900;2022-10-31T10:40:53;18.70;68.10
39325;DHT22;25037;49.488;9.900;2022-10-31T10:43:20;18.80;68.20
39325;DHT22;25037;49.488;9.900;2022-10-31T10:57:00;18.80;68.10
39325;DHT22;25037;49.488;9.900;2022-10-31T10:59:29;19.00;68.10
39325;DHT22;25037;49.488;9.900;2022-10-31T11:01:55;19.00;68.10
39325;DHT22;25037;49.488;9.900;2022-10-31T11:04:33;19.00;68.10
39325;DHT22;25037;49.488;9.900;2022-10-31T11:09:25;19.00;68.10
39325;DHT22;25037;49.488;9.900;2022-10-31T11:11:51;19.00;68.10
39325;DHT22;25037;49.488;9.900;2022-10-31T11:14:17;19.00;68.20
39325;DHT22;25037;49.488;9.900;2022-10-31T11:16:48;19.00;68.20
39325;DHT22;25037;49.488;9.900;2022-10-31T11:21:46;19.00;68.10
39325;DHT22;25037;49.488;9.900;2022-10-31T11:24:16;19.10;68.10
39325;DHT22;25037;49.488;9.900;2022-10-31T11:26:44;19.10;68.10
39325;DHT22;25037;49.488;9.900;2022-10-31T11:31:40;19.10;67.80
39325;DHT22;25037;49.488;9.900;2022-10-31T11:34:13;19.20;67.80
39325;DHT22;25037;49.488;9.900;2022-10-31T11:36:43;19.10;67.80
39325;DHT22;25037;49.488;9.900;2022-10-31T11:39:20;19.00;68.00
39325;DHT22;25037;49.488;9.900;2022-10-31T11:41:48;19.00;68.10
39325;DHT22;25037;49.488;9.900;2022-10-31T11:44:26;18.90;68.10
39325;DHT22;25037;49.488;9.900;2022-10-31T11:46:58;18.80;68.10
39325;DHT22;25037;49.488;9.900;2022-10-31T11:49:42;18.80;68.30
39325;DHT22;25037;49.488;9.900;2022-10-31T11:52:20;18.80;68.40
39325;DHT22;25037;49.488;9.900;2022-10-31T11:54:55;18.80;68.40
39325;DHT22;25037;49.488;9.900;2022-10-31T11:57:23;18.70;68.50
39325;DHT22;25037;49.488;9.900;2022-10-31T11:59:57;18.70;68.70
39325;DHT22;25037;49.488;9.900;2022-10-31T12:02:24;18.80;68.70
39325;DHT22;25037;49.488;9.900;2022-10-31T12:05:04;18.90;68.60
39325;DHT22;25037;49.488;9.900;2022-10-31T12:07:33;19.00;68.40
39325;DHT22;25037;49.488;9.900;2022-10-31T12:09:58;19.00;68.50
39325;DHT22;25037;49.488;9.900;2022-10-31T12:15:21;19.00;68.10
39325;DHT22;25037;49.488;9.900;2022-10-31T12:20:46;19.00;68.50
39325;DHT22;25037;49.488;9.900;2022-10-31T12:35:44;18.80;68.80
39325;DHT22;25037;49.488;9.900;2022-10-31T12:38:42;18.80;68.70
39325;DHT22;25037;49.488;9.900;2022-10-31T12:41:20;18.70;69.00
39325;DHT22;25037;49.488;9.900;2022-10-31T12:52:09;18.60;69.50
39325;DHT22;25037;49.488;9.900;2022-10-31T12:59:51;18.70;69.30
39325;DHT22;25037;49.488;9.900;2022-10-31T13:04:54;18.80;69.40
39325;DHT22;25037;49.488;9.900;2022-10-31T13:10:27;18.80;69.20
39325;DHT22;25037;49.488;9.900;2022-10-31T13:12:59;18.80;69.30
39325;DHT22;25037;49.488;9.900;2022-10-31T13:15:33;18.80;69.50
39325;DHT22;25037;49.488;9.900;2022-10-31T13:18:04;18.80;69.40
39325;DHT22;25037;49.488;9.900;2022-10-31T13:20:43;18.80;69.60
39325;DHT22;25037;49.488;9.900;2022-10-31T13:23:25;18.80;69.60
39325;DHT22;25037;49.488;9.900;2022-10-31T13:25:54;18.80;69.60
39325;DHT22;25037;49.488;9.900;2022-10-31T13:28:57;18.70;69.70
39325;DHT22;25037;49.488;9.900;2022-10-31T13:31:25;18.70;70.00
39325;DHT22;25037;49.488;9.900;2022-10-31T13:33:58;18.70;70.10
39325;DHT22;25037;49.488;9.900;2022-10-31T13:36:42;18.60;70.10
39325;DHT22;25037;49.488;9.900;2022-10-31T13:44:53;18.50;70.50
39325;DHT22;25037;49.488;9.900;2022-10-31T13:47:28;18.40;70.70
39325;DHT22;25037;49.488;9.900;2022-10-31T13:52:45;18.40;70.90
39325;DHT22;25037;49.488;9.900;2022-10-31T13:55:43;18.40;71.10
39325;DHT22;25037;49.488;9.900;2022-10-31T13:58:25;18.50;71.10
39325;DHT22;25037;49.488;9.900;2022-10-31T14:01:15;18.50;71.10
39325;DHT22;25037;49.488;9.900;2022-10-31T14:03:44;18.50;71.10
39325;DHT22;25037;49.488;9.900;2022-10-31T14:06:11;18.50;71.20
39325;DHT22;25037;49.488;9.900;2022-10-31T14:08:40;18.40;71.30
39325;DHT22;25037;49.488;9.900;2022-10-31T14:11:09;18.40;71.40
39325;DHT22;25037;49.488;9.900;2022-10-31T14:13:44;18.40;71.50
39325;DHT22;25037;49.488;9.900;2022-10-31T14:16:19;18.40;71.60
39325;DHT22;25037;49.488;9.900;2022-10-31T14:18:50;18.30;71.70
39325;DHT22;25037;49.488;9.900;2022-10-31T14:23:48;18.30;71.90
39325;DHT22;25037;49.488;9.900;2022-10-31T14:29:43;18.20;72.00
39325;DHT22;25037;49.488;9.900;2022-10-31T14:31:45;18.20;72.20
39325;DHT22;25037;49.488;9.900;2022-10-31T14:37:07;18.10;72.20
39325;DHT22;25037;49.488;9.900;2022-10-31T14:45:17;18.00;72.70
39325;DHT22;25037;49.488;9.900;2022-10-31T14:53:05;18.00;72.70
39325;DHT22;25037;49.488;9.900;2022-10-31T14:55:32;18.00;72.80
39325;DHT22;25037;49.488;9.900;2022-10-31T14:58:04;18.00;72.90
39325;DHT22;25037;49.488;9.900;2022-10-31T15:00:32;18.10;72.90
39325;DHT22;25037;49.488;9.900;2022-10-31T15:05:27;18.00;72.90
39325;DHT22;25037;49.488;9.900;2022-10-31T15:07:54;18.10;72.80
39325;DHT22;25037;49.488;9.900;2022-10-31T15:10:30;18.10;72.80
39325;DHT22;25037;49.488;9.900;2022-10-31T15:13:18;18.10;72.90
39325;DHT22;25037;49.488;9.900;2022-10-31T15:15:44;18.10;72.90
39325;DHT22;25037;49.488;9.900;2022-10-31T15:18:17;18.10;72.80
39325;DHT22;25037;49.488;9.900;2022-10-31T15:20:44;18.10;72.90
39325;DHT22;25037;49.488;9.900;2022-10-31T15:23:16;18.00;72.90
39325;DHT22;25037;49.488;9.900;2022-10-31T15:25:41;18.00;73.10
39325;DHT22;25037;49.488;9.900;2022-10-31T15:28:23;18.00;73.10
39325;DHT22;25037;49.488;9.900;2022-10-31T15:30:55;17.90;73.10
39325;DHT22;25037;49.488;9.900;2022-10-31T15:33:26;17.80;73.20
39325;DHT22;25037;49.488;9.900;2022-10-31T15:35:57;17.80;73.40
39325;DHT22;25037;49.488;9.900;2022-10-31T15:38:24;17.70;73.60
39325;DHT22;25037;49.488;9.900;2022-10-31T15:43:20;17.50;73.90
39325;DHT22;25037;49.488;9.900;2022-10-31T15:45:46;17.40;74.00
39325;DHT22;25037;49.488;9.900;2022-10-31T15:48:16;17.30;74.10
39325;DHT22;25037;49.488;9.900;2022-10-31T15:50:50;17.30;74.30
39325;DHT22;25037;49.488;9.900;2022-10-31T15:53:21;17.20;74.60
39325;DHT22;25037;49.488;9.900;2022-10-31T15:55:59;17.10;74.70
39325;DHT22;25037;49.488;9.900;2022-10-31T15:58:26;17.00;74.90
39325;DHT22;25037;49.488;9.900;2022-10-31T16:01:01;16.80;75.00
39325;DHT22;25037;49.488;9.900;2022-10-31T16:03:30;16.80;75.30
39325;DHT22;25037;49.488;9.900;2022-10-31T16:06:01;16.70;75.30
39325;DHT22;25037;49.488;9.900;2022-10-31T16:13:30;16.50;75.80
39325;DHT22;25037;49.488;9.900;2022-10-31T16:16:10;16.50;75.90
39325;DHT22;25037;49.488;9.900;2022-10-31T16:18:38;16.30;76.00
39325;DHT22;25037;49.488;9.900;2022-10-31T16:21:04;16.20;76.10
39325;DHT22;25037;49.488;9.900;2022-10-31T16:23:30;16.20;76.30
39325;DHT22;25037;49.488;9.900;2022-10-31T16:25:56;16.20;76.40
39325;DHT22;25037;49.488;9.900;2022-10-31T16:28:24;16.20;76.60
39325;DHT22;25037;49.488;9.900;2022-10-31T16:30:53;16.20;76.80
39325;DHT22;25037;49.488;9.900;2022-10-31T16:33:32;16.20;76.80
39325;DHT22;25037;49.488;9.900;2022-10-31T16:35:59;16.20;77.00
39325;DHT22;25037;49.488;9.900;2022-10-31T16:38:26;16.20;77.00
39325;DHT22;25037;49.488;9.900;2022-10-31T16:40:52;16.20;77.00
39325;DHT22;25037;49.488;9.900;2022-10-31T16:43:19;16.20;77.10
39325;DHT22;25037;49.488;9.900;2022-10-31T16:45:52;16.20;77.10
39325;DHT22;25037;49.488;9.900;2022-10-31T16:48:20;16.20;77.30
39325;DHT22;25037;49.488;9.900;2022-10-31T16:50:47;16.20;77.20
39325;DHT22;25037;49.488;9.900;2022-10-31T16:53:15;16.20;77.30
39325;DHT22;25037;49.488;9.900;2022-10-31T16:55:54;16.20;77.30
39325;DHT22;25037;49.488;9.900;2022-10-31T16:58:28;16.10;77.40
39325;DHT22;25037;49.488;9.900;2022-10-31T17:00:55;16.10;77.60
39325;DHT22;25037;49.488;9.900;2022-10-31T17:03:20;16.00;77.60
39325;DHT22;25037;49.488;9.900;2022-10-31T17:05:46;16.00;77.60
39325;DHT22;25037;49.488;9.900;2022-10-31T17:08:11;15.90;77.70
39325;DHT22;25037;49.488;9.900;2022-10-31T17:10:38;15.80;77.80
39325;DHT22;25037;49.488;9.900;2022-10-31T17:13:06;15.70;78.00
39325;DHT22;25037;49.488;9.900;2022-10-31T17:15:40;15.70;78.20
39325;DHT22;25037;49.488;9.900;2022-10-31T17:18:06;15.80;78.20
39325;DHT22;25037;49.488;9.900;2022-10-31T17:20:32;15.80;78.10
39325;DHT22;25037;49.488;9.900;2022-10-31T17:22:58;15.80;78.10
39325;DHT22;25037;49.488;9.900;2022-10-31T17:25:26;15.80;78.00
39325;DHT22;25037;49.488;9.900;2022-10-31T17:27:52;15.80;78.10
39325;DHT22;25037;49.488;9.900;2022-10-31T17:30:19;15.80;78.10
39325;DHT22;25037;49.488;9.900;2022-10-31T17:32:46;15.80;78.20
39325;DHT22;25037;49.488;9.900;2022-10-31T17:35:13;15.80;78.10
39325;DHT22;25037;49.488;9.900;2022-10-31T17:37:40;15.80;78.10
39325;DHT22;25037;49.488;9.900;2022-10-31T17:40:11;15.80;78.00
39325;DHT22;25037;49.488;9.900;2022-10-31T17:42:37;15.90;77.90
39325;DHT22;25037;49.488;9.900;2022-10-31T17:45:06;15.90;77.80
39325;DHT22;25037;49.488;9.900;2022-10-31T17:47:33;15.90;77.80
39325;DHT22;25037;49.488;9.900;2022-10-31T17:49:59;15.90;77.80
39325;DHT22;25037;49.488;9.900;2022-10-31T17:52:24;15.90;77.70
39325;DHT22;25037;49.488;9.900;2022-10-31T17:54:51;15.90;77.70
39325;DHT22;25037;49.488;9.900;2022-10-31T17:57:17;15.80;77.80
39325;DHT22;25037;49.488;9.900;2022-10-31T17:59:42;15.70;77.90
39325;DHT22;25037;49.488;9.900;2022-10-31T18:02:09;15.70;78.10
39325;DHT22;25037;49.488;9.900;2022-10-31T18:04:35;15.60;78.20
39325;DHT22;25037;49.488;9.900;2022-10-31T18:07:02;15.60;78.30
39325;DHT22;25037;49.488;9.900;2022-10-31T18:09:27;15.50;78.50
39325;DHT22;25037;49.488;9.900;2022-10-31T18:11:53;15.50;78.50
39325;DHT22;25037;49.488;9.900;2022-10-31T18:14:19;15.50;78.60
39325;DHT22;25037;49.488;9.900;2022-10-31T18:16:44;15.50;78.70
39325;DHT22;25037;49.488;9.900;2022-10-31T18:19:12;15.50;78.80
39325;DHT22;25037;49.488;9.900;2022-10-31T18:21:38;15.50;78.80